sensor_id;sensor_type;location;lat;lon;timestamp;temperature;humidity
1956;DHT22;978;48.314;11.562;2023-08-01T00:01:17;24.00;81.80
1956;DHT22;978;48.314;11.562;2023-08-01T00:03:44;24.00;81.80
1956;DHT22;978;48.314;11.562;2023-08-01T00:06:10;23.90;81.70
1956;DHT22;978;48.314;11.562;2023-08-01T00:08:37;23.90;81.70
1956;DHT22;978;48.314;11.562;2023-08-01T00:11:04;23.90;81.70
1956;DHT22;978;48.314;11.562;2023-08-01T00:13:31;23.90;81.70
1956;DHT22;978;48.314;11.562;2023-08-01T00:15:59;23.90;81.70
1956;DHT22;978;48.314;11.562;2023-08-01T00:18:25;23.90;81.70
1956;DHT22;978;48.314;11.562;2023-08-01T00:20:52;24.00;81.70
1956;DHT22;978;48.314;11.562;2023-08-01T00:23:19;24.00;81.80
1956;DHT22;978;48.314;11.562;2023-08-01T00:25:46;24.00;81.70
1956;DHT22;978;48.314;11.562;2023-08-01T00:28:16;23.90;81.70
1956;DHT22;978;48.314;11.562;2023-08-01T00:30:43;23.90;81.70
1956;DHT22;978;48.314;11.562;2023-08-01T00:33:11;23.90;81.70
1956;DHT22;978;48.314;11.562;2023-08-01T00:35:38;24.00;81.70
1956;DHT22;978;48.314;11.562;2023-08-01T00:38:05;23.90;81.70
1956;DHT22;978;48.314;11.562;2023-08-01T00:40:32;24.00;81.70
1956;DHT22;978;48.314;11.562;2023-08-01T00:42:59;23.90;81.70
1956;DHT22;978;48.314;11.562;2023-08-01T00:45:26;24.00;81.70
1956;DHT22;978;48.314;11.562;2023-08-01T00:47:54;23.90;81.80
1956;DHT22;978;48.314;11.562;2023-08-01T00:50:22;24.00;81.70
1956;DHT22;978;48.314;11.562;2023-08-01T00:52:50;23.90;81.60
1956;DHT22;978;48.314;11.562;2023-08-01T00:55:18;24.00;81.70
1956;DHT22;978;48.314;11.562;2023-08-01T00:57:46;24.00;81.70
1956;DHT22;978;48.314;11.562;2023-08-01T01:00:14;24.00;81.70
1956;DHT22;978;48.314;11.562;2023-08-01T01:02:40;23.90;81.70
1956;DHT22;978;48.314;11.562;2023-08-01T01:05:07;24.00;81.70
1956;DHT22;978;48.314;11.562;2023-08-01T01:07:37;24.00;81.70
1956;DHT22;978;48.314;11.562;2023-08-01T01:10:04;23.90;81.60
1956;DHT22;978;48.314;11.562;2023-08-01T01:12:31;23.90;81.70
1956;DHT22;978;48.314;11.562;2023-08-01T01:14:58;23.90;81.70
1956;DHT22;978;48.314;11.562;2023-08-01T01:17:25;23.90;81.60
1956;DHT22;978;48.314;11.562;2023-08-01T01:19:54;23.90;81.60
1956;DHT22;978;48.314;11.562;2023-08-01T01:22:22;23.90;81.70
1956;DHT22;978;48.314;11.562;2023-08-01T01:24:50;23.90;81.70
1956;DHT22;978;48.314;11.562;2023-08-01T01:27:18;24.00;81.70
1956;DHT22;978;48.314;11.562;2023-08-01T01:29:47;23.90;81.70
1956;DHT22;978;48.314;11.562;2023-08-01T01:32:14;23.90;81.70
1956;DHT22;978;48.314;11.562;2023-08-01T01:34:42;23.90;81.70
1956;DHT22;978;48.314;11.562;2023-08-01T01:37:08;24.00;81.80
1956;DHT22;978;48.314;11.562;2023-08-01T01:39:37;23.90;81.70
1956;DHT22;978;48.314;11.562;2023-08-01T01:42:04;23.90;81.70
1956;DHT22;978;48.314;11.562;2023-08-01T01:44:31;23.90;81.70
1956;DHT22;978;48.314;11.562;2023-08-01T01:46:58;23.90;81.70
1956;DHT22;978;48.314;11.562;2023-08-01T01:49:25;24.00;81.70
1956;DHT22;978;48.314;11.562;2023-08-01T01:51:51;24.00;81.80
1956;DHT22;978;48.314;11.562;2023-08-01T01:54:19;24.00;81.80
1956;DHT22;978;48.314;11.562;2023-08-01T01:56:47;23.80;81.60
1956;DHT22;978;48.314;11.562;2023-08-01T01:59:14;23.90;81.70
1956;DHT22;978;48.314;11.562;2023-08-01T02:01:41;23.90;81.70
1956;DHT22;978;48.314;11.562;2023-08-01T02:04:08;23.90;81.70
1956;DHT22;978;48.314;11.562;2023-08-01T02:06:34;24.00;81.70
1956;DHT22;978;48.314;11.562;2023-08-01T02:09:01;23.90;81.60
1956;DHT22;978;48.314;11.562;2023-08-01T02:11:29;23.90;81.60
1956;DHT22;978;48.314;11.562;2023-08-01T02:13:57;23.90;81.60
1956;DHT22;978;48.314;11.562;2023-08-01T02:16:24;24.00;81.70
1956;DHT22;978;48.314;11.562;2023-08-01T02:18:51;23.90;81.60
1956;DHT22;978;48.314;11.562;2023-08-01T02:21:18;23.90;81.60
1956;DHT22;978;48.314;11.562;2023-08-01T02:23:44;23.90;81.60
1956;DHT22;978;48.314;11.562;2023-08-01T02:26:11;23.90;81.60
1956;DHT22;978;48.314;11.562;2023-08-01T02:28:38;23.90;81.60
1956;DHT22;978;48.314;11.562;2023-08-01T02:31:06;24.50;81.90
1956;DHT22;978;48.314;11.562;2023-08-01T02:33:33;23.90;81.60
1956;DHT22;978;48.314;11.562;2023-08-01T02:36:00;23.90;81.50
1956;DHT22;978;48.314;11.562;2023-08-01T02:38:26;23.90;81.50
1956;DHT22;978;48.314;11.562;2023-08-01T02:40:53;23.90;81.50
1956;DHT22;978;48.314;11.562;2023-08-01T02:43:20;23.90;81.50
1956;DHT22;978;48.314;11.562;2023-08-01T02:45:47;23.90;81.50
1956;DHT22;978;48.314;11.562;2023-08-01T02:48:15;24.00;81.60
1956;DHT22;978;48.314;11.562;2023-08-01T02:50:42;24.00;81.60
1956;DHT22;978;48.314;11.562;2023-08-01T02:53:08;23.90;81.50
1956;DHT22;978;48.314;11.562;2023-08-01T02:55:35;24.00;81.60
1956;DHT22;978;48.314;11.562;2023-08-01T02:58:02;23.90;81.50
1956;DHT22;978;48.314;11.562;2023-08-01T03:00:28;23.90;81.50
1956;DHT22;978;48.314;11.562;2023-08-01T03:02:57;23.90;81.50
1956;DHT22;978;48.314;11.562;2023-08-01T03:05:25;23.90;81.50
1956;DHT22;978;48.314;11.562;2023-08-01T03:07:52;23.90;81.50
1956;DHT22;978;48.314;11.562;2023-08-01T03:10:19;23.90;81.50
1956;DHT22;978;48.314;11.562;2023-08-01T03:12:45;24.00;81.60
1956;DHT22;978;48.314;11.562;2023-08-01T03:15:12;24.00;81.60
1956;DHT22;978;48.314;11.562;2023-08-01T03:17:39;23.90;81.50
1956;DHT22;978;48.314;11.562;2023-08-01T03:20:08;24.00;81.60
1956;DHT22;978;48.314;11.562;2023-08-01T03:22:40;23.90;81.50
1956;DHT22;978;48.314;11.562;2023-08-01T03:25:07;23.90;81.50
1956;DHT22;978;48.314;11.562;2023-08-01T03:27:34;23.90;81.50
1956;DHT22;978;48.314;11.562;2023-08-01T03:30:01;23.90;81.50
1956;DHT22;978;48.314;11.562;2023-08-01T03:32:29;23.90;81.50
1956;DHT22;978;48.314;11.562;2023-08-01T03:34:56;23.90;81.50
1956;DHT22;978;48.314;11.562;2023-08-01T03:37:24;23.90;81.50
1956;DHT22;978;48.314;11.562;2023-08-01T03:39:52;23.90;81.60
1956;DHT22;978;48.314;11.562;2023-08-01T03:42:18;24.10;81.60
1956;DHT22;978;48.314;11.562;2023-08-01T03:44:45;23.90;81.60
1956;DHT22;978;48.314;11.562;2023-08-01T03:47:12;23.90;81.60
1956;DHT22;978;48.314;11.562;2023-08-01T03:49:39;23.90;81.60
1956;DHT22;978;48.314;11.562;2023-08-01T03:52:06;23.90;81.60
1956;DHT22;978;48.314;11.562;2023-08-01T03:54:33;23.90;81.60
1956;DHT22;978;48.314;11.562;2023-08-01T03:57:01;23.90;81.60
1956;DHT22;978;48.314;11.562;2023-08-01T03:59:29;23.90;81.60
1956;DHT22;978;48.314;11.562;2023-08-01T04:01:56;24.00;81.70
1956;DHT22;978;48.314;11.562;2023-08-01T04:04:23;23.90;81.60
1956;DHT22;978;48.314;11.562;2023-08-01T04:06:49;24.00;81.70
1956;DHT22;978;48.314;11.562;2023-08-01T04:09:16;23.90;81.70
1956;DHT22;978;48.314;11.562;2023-08-01T04:11:43;23.90;81.70
1956;DHT22;978;48.314;11.562;2023-08-01T04:14:11;23.90;81.70
1956;DHT22;978;48.314;11.562;2023-08-01T04:16:37;23.90;81.70
1956;DHT22;978;48.314;11.562;2023-08-01T04:19:04;23.90;81.70
1956;DHT22;978;48.314;11.562;2023-08-01T04:21:31;23.90;81.70
1956;DHT22;978;48.314;11.562;2023-08-01T04:23:58;23.90;81.80
1956;DHT22;978;48.314;11.562;2023-08-01T04:26:25;23.90;81.70
1956;DHT22;978;48.314;11.562;2023-08-01T04:28:52;23.90;81.80
1956;DHT22;978;48.314;11.562;2023-08-01T04:31:20;23.90;81.80
1956;DHT22;978;48.314;11.562;2023-08-01T04:33:47;23.90;81.80
1956;DHT22;978;48.314;11.562;2023-08-01T04:36:13;23.90;81.80
1956;DHT22;978;48.314;11.562;2023-08-01T04:38:40;23.90;81.80
1956;DHT22;978;48.314;11.562;2023-08-01T04:41:07;23.90;81.90
1956;DHT22;978;48.314;11.562;2023-08-01T04:43:34;24.00;81.90
1956;DHT22;978;48.314;11.562;2023-08-01T04:46:00;23.90;81.90
1956;DHT22;978;48.314;11.562;2023-08-01T04:48:29;23.90;81.90
1956;DHT22;978;48.314;11.562;2023-08-01T04:50:55;23.90;81.90
1956;DHT22;978;48.314;11.562;2023-08-01T04:53:22;23.90;82.00
1956;DHT22;978;48.314;11.562;2023-08-01T04:55:49;24.00;82.00
1956;DHT22;978;48.314;11.562;2023-08-01T04:58:16;23.90;82.00
1956;DHT22;978;48.314;11.562;2023-08-01T05:00:42;23.90;82.00
1956;DHT22;978;48.314;11.562;2023-08-01T05:03:09;23.90;82.10
1956;DHT22;978;48.314;11.562;2023-08-01T05:05:37;23.90;82.20
1956;DHT22;978;48.314;11.562;2023-08-01T05:08:04;23.90;82.20
1956;DHT22;978;48.314;11.562;2023-08-01T05:10:31;23.90;82.20
1956;DHT22;978;48.314;11.562;2023-08-01T05:12:57;23.90;82.30
1956;DHT22;978;48.314;11.562;2023-08-01T05:15:24;24.00;82.40
1956;DHT22;978;48.314;11.562;2023-08-01T05:17:52;23.90;82.40
1956;DHT22;978;48.314;11.562;2023-08-01T05:20:19;23.90;82.30
1956;DHT22;978;48.314;11.562;2023-08-01T05:22:47;23.90;82.50
1956;DHT22;978;48.314;11.562;2023-08-01T05:25:14;23.90;82.40
1956;DHT22;978;48.314;11.562;2023-08-01T05:27:40;22.90;82.50
1956;DHT22;978;48.314;11.562;2023-08-01T05:30:08;23.90;82.50
1956;DHT22;978;48.314;11.562;2023-08-01T05:32:35;23.90;82.50
1956;DHT22;978;48.314;11.562;2023-08-01T05:35:02;23.90;82.60
1956;DHT22;978;48.314;11.562;2023-08-01T05:37:29;23.90;82.60
1956;DHT22;978;48.314;11.562;2023-08-01T05:39:57;23.90;82.60
1956;DHT22;978;48.314;11.562;2023-08-01T05:42:24;23.90;82.60
1956;DHT22;978;48.314;11.562;2023-08-01T05:44:50;24.00;82.70
1956;DHT22;978;48.314;11.562;2023-08-01T05:47:19;23.90;82.80
1956;DHT22;978;48.314;11.562;2023-08-01T05:49:48;23.90;83.00
1956;DHT22;978;48.314;11.562;2023-08-01T05:52:16;24.00;82.80
1956;DHT22;978;48.314;11.562;2023-08-01T05:54:42;24.00;82.80
1956;DHT22;978;48.314;11.562;2023-08-01T05:57:11;23.90;82.80
1956;DHT22;978;48.314;11.562;2023-08-01T05:59:37;23.90;82.80
1956;DHT22;978;48.314;11.562;2023-08-01T06:02:05;24.00;82.90
1956;DHT22;978;48.314;11.562;2023-08-01T06:04:32;23.90;82.90
1956;DHT22;978;48.314;11.562;2023-08-01T06:06:59;23.90;82.90
1956;DHT22;978;48.314;11.562;2023-08-01T06:09:25;24.00;83.00
1956;DHT22;978;48.314;11.562;2023-08-01T06:11:52;23.90;83.00
1956;DHT22;978;48.314;11.562;2023-08-01T06:14:20;24.00;83.10
1956;DHT22;978;48.314;11.562;2023-08-01T06:16:47;24.00;83.20
1956;DHT22;978;48.314;11.562;2023-08-01T06:19:14;23.90;83.20
1956;DHT22;978;48.314;11.562;2023-08-01T06:21:41;23.90;83.30
1956;DHT22;978;48.314;11.562;2023-08-01T06:24:09;24.00;83.40
1956;DHT22;978;48.314;11.562;2023-08-01T06:26:36;23.90;83.40
1956;DHT22;978;48.314;11.562;2023-08-01T06:29:03;24.00;83.50
1956;DHT22;978;48.314;11.562;2023-08-01T06:31:31;23.90;83.40
1956;DHT22;978;48.314;11.562;2023-08-01T06:33:58;23.90;83.40
1956;DHT22;978;48.314;11.562;2023-08-01T06:36:25;23.90;83.40
1956;DHT22;978;48.314;11.562;2023-08-01T06:38:51;22.10;82.50
1956;DHT22;978;48.314;11.562;2023-08-01T06:41:18;24.20;83.70
1956;DHT22;978;48.314;11.562;2023-08-01T06:43:45;23.90;83.50
1956;DHT22;978;48.314;11.562;2023-08-01T06:46:11;24.10;83.60
1956;DHT22;978;48.314;11.562;2023-08-01T06:48:41;23.90;83.50
1956;DHT22;978;48.314;11.562;2023-08-01T06:51:08;23.90;83.50
1956;DHT22;978;48.314;11.562;2023-08-01T06:53:34;24.00;83.50
1956;DHT22;978;48.314;11.562;2023-08-01T06:56:01;24.00;83.50
1956;DHT22;978;48.314;11.562;2023-08-01T06:58:28;23.90;83.50
1956;DHT22;978;48.314;11.562;2023-08-01T07:00:55;23.90;83.50
1956;DHT22;978;48.314;11.562;2023-08-01T07:03:21;24.00;83.50
1956;DHT22;978;48.314;11.562;2023-08-01T07:05:50;24.00;83.50
1956;DHT22;978;48.314;11.562;2023-08-01T07:08:17;23.90;83.40
1956;DHT22;978;48.314;11.562;2023-08-01T07:10:43;23.90;83.40
1956;DHT22;978;48.314;11.562;2023-08-01T07:13:12;23.90;83.40
1956;DHT22;978;48.314;11.562;2023-08-01T07:15:39;23.90;83.40
1956;DHT22;978;48.314;11.562;2023-08-01T07:18:06;23.90;83.30
1956;DHT22;978;48.314;11.562;2023-08-01T07:20:32;23.90;83.30
1956;DHT22;978;48.314;11.562;2023-08-01T07:23:00;23.90;83.20
1956;DHT22;978;48.314;11.562;2023-08-01T07:25:27;24.10;83.30
1956;DHT22;978;48.314;11.562;2023-08-01T07:27:54;24.00;83.20
1956;DHT22;978;48.314;11.562;2023-08-01T07:30:20;24.00;83.20
1956;DHT22;978;48.314;11.562;2023-08-01T07:32:47;23.90;83.10
1956;DHT22;978;48.314;11.562;2023-08-01T07:35:14;23.90;83.10
1956;DHT22;978;48.314;11.562;2023-08-01T07:37:41;24.00;83.10
1956;DHT22;978;48.314;11.562;2023-08-01T07:40:11;23.90;83.00
1956;DHT22;978;48.314;11.562;2023-08-01T07:42:39;23.90;83.10
1956;DHT22;978;48.314;11.562;2023-08-01T07:45:09;23.90;83.00
1956;DHT22;978;48.314;11.562;2023-08-01T07:47:35;23.90;83.00
1956;DHT22;978;48.314;11.562;2023-08-01T07:50:04;23.90;82.90
1956;DHT22;978;48.314;11.562;2023-08-01T07:52:31;23.90;82.90
1956;DHT22;978;48.314;11.562;2023-08-01T07:54:58;23.90;82.90
1956;DHT22;978;48.314;11.562;2023-08-01T07:57:26;23.90;82.80
1956;DHT22;978;48.314;11.562;2023-08-01T07:59:53;23.90;82.80
1956;DHT22;978;48.314;11.562;2023-08-01T08:02:20;24.00;82.70
1956;DHT22;978;48.314;11.562;2023-08-01T08:04:48;23.90;82.70
1956;DHT22;978;48.314;11.562;2023-08-01T08:07:15;23.90;82.60
1956;DHT22;978;48.314;11.562;2023-08-01T08:09:41;23.90;82.60
1956;DHT22;978;48.314;11.562;2023-08-01T08:12:08;23.90;82.50
1956;DHT22;978;48.314;11.562;2023-08-01T08:14:36;23.90;82.50
1956;DHT22;978;48.314;11.562;2023-08-01T08:17:04;23.90;83.00
1956;DHT22;978;48.314;11.562;2023-08-01T08:19:31;23.90;82.40
1956;DHT22;978;48.314;11.562;2023-08-01T08:21:57;23.90;82.30
1956;DHT22;978;48.314;11.562;2023-08-01T08:24:24;23.90;82.30
1956;DHT22;978;48.314;11.562;2023-08-01T08:26:51;23.90;82.30
1956;DHT22;978;48.314;11.562;2023-08-01T08:29:18;24.00;82.30
1956;DHT22;978;48.314;11.562;2023-08-01T08:31:46;23.90;82.20
1956;DHT22;978;48.314;11.562;2023-08-01T08:34:12;23.90;82.20
1956;DHT22;978;48.314;11.562;2023-08-01T08:36:39;23.90;82.20
1956;DHT22;978;48.314;11.562;2023-08-01T08:39:06;23.90;82.10
1956;DHT22;978;48.314;11.562;2023-08-01T08:41:38;23.90;82.10
1956;DHT22;978;48.314;11.562;2023-08-01T08:44:07;24.00;82.10
1956;DHT22;978;48.314;11.562;2023-08-01T08:46:40;24.00;82.10
1956;DHT22;978;48.314;11.562;2023-08-01T08:49:09;23.90;82.00
1956;DHT22;978;48.314;11.562;2023-08-01T08:51:38;23.90;82.00
1956;DHT22;978;48.314;11.562;2023-08-01T08:54:05;24.00;82.00
1956;DHT22;978;48.314;11.562;2023-08-01T08:56:33;23.90;82.50
1956;DHT22;978;48.314;11.562;2023-08-01T08:59:00;24.00;81.90
1956;DHT22;978;48.314;11.562;2023-08-01T09:01:27;23.90;81.90
1956;DHT22;978;48.314;11.562;2023-08-01T09:03:57;23.90;81.90
1956;DHT22;978;48.314;11.562;2023-08-01T09:06:30;24.00;82.00
1956;DHT22;978;48.314;11.562;2023-08-01T09:09:02;23.90;81.90
1956;DHT22;978;48.314;11.562;2023-08-01T09:11:38;23.90;82.00
1956;DHT22;978;48.314;11.562;2023-08-01T09:14:06;23.90;82.00
1956;DHT22;978;48.314;11.562;2023-08-01T09:16:33;23.90;82.00
1956;DHT22;978;48.314;11.562;2023-08-01T09:19:00;23.90;82.00
1956;DHT22;978;48.314;11.562;2023-08-01T09:21:31;23.90;82.20
1956;DHT22;978;48.314;11.562;2023-08-01T09:24:07;23.90;82.30
1956;DHT22;978;48.314;11.562;2023-08-01T09:26:34;24.00;82.10
1956;DHT22;978;48.314;11.562;2023-08-01T09:29:01;23.90;82.10
1956;DHT22;978;48.314;11.562;2023-08-01T09:31:29;23.90;82.60
1956;DHT22;978;48.314;11.562;2023-08-01T09:33:57;23.80;82.40
1956;DHT22;978;48.314;11.562;2023-08-01T09:36:24;23.90;82.60
1956;DHT22;978;48.314;11.562;2023-08-01T09:38:58;24.30;82.50
1956;DHT22;978;48.314;11.562;2023-08-01T09:41:25;23.90;82.20
1956;DHT22;978;48.314;11.562;2023-08-01T09:43:52;23.90;82.60
1956;DHT22;978;48.314;11.562;2023-08-01T09:46:19;25.20;83.00
1956;DHT22;978;48.314;11.562;2023-08-01T09:48:48;23.90;82.50
1956;DHT22;978;48.314;11.562;2023-08-01T09:51:16;25.00;83.00
1956;DHT22;978;48.314;11.562;2023-08-01T09:53:49;23.90;82.40
1956;DHT22;978;48.314;11.562;2023-08-01T09:56:21;23.90;82.40
1956;DHT22;978;48.314;11.562;2023-08-01T09:58:54;23.90;82.60
1956;DHT22;978;48.314;11.562;2023-08-01T10:01:24;23.80;82.40
1956;DHT22;978;48.314;11.562;2023-08-01T10:03:52;23.90;82.50
1956;DHT22;978;48.314;11.562;2023-08-01T10:06:21;23.90;82.70
1956;DHT22;978;48.314;11.562;2023-08-01T10:08:49;25.50;83.40
1956;DHT22;978;48.314;11.562;2023-08-01T10:11:19;22.30;81.60
1956;DHT22;978;48.314;11.562;2023-08-01T10:13:46;23.90;83.10
1956;DHT22;978;48.314;11.562;2023-08-01T10:16:15;24.90;83.20
1956;DHT22;978;48.314;11.562;2023-08-01T10:18:43;23.90;83.10
1956;DHT22;978;48.314;11.562;2023-08-01T10:21:12;23.90;83.30
1956;DHT22;978;48.314;11.562;2023-08-01T10:23:41;23.30;83.00
1956;DHT22;978;48.314;11.562;2023-08-01T10:26:09;24.40;83.60
1956;DHT22;978;48.314;11.562;2023-08-01T10:28:41;24.70;83.40
1956;DHT22;978;48.314;11.562;2023-08-01T10:31:10;23.90;82.90
1956;DHT22;978;48.314;11.562;2023-08-01T10:33:40;23.90;83.00
1956;DHT22;978;48.314;11.562;2023-08-01T10:36:19;23.90;83.00
1956;DHT22;978;48.314;11.562;2023-08-01T10:38:47;23.90;83.00
1956;DHT22;978;48.314;11.562;2023-08-01T10:41:19;23.90;83.00
1956;DHT22;978;48.314;11.562;2023-08-01T10:43:47;24.00;83.00
1956;DHT22;978;48.314;11.562;2023-08-01T10:46:14;24.00;83.10
1956;DHT22;978;48.314;11.562;2023-08-01T10:48:51;24.00;83.10
1956;DHT22;978;48.314;11.562;2023-08-01T10:51:17;24.00;83.10
1956;DHT22;978;48.314;11.562;2023-08-01T10:53:45;24.00;83.10
1956;DHT22;978;48.314;11.562;2023-08-01T10:56:16;24.00;83.10
1956;DHT22;978;48.314;11.562;2023-08-01T10:58:43;24.00;83.20
1956;DHT22;978;48.314;11.562;2023-08-01T11:01:12;24.00;83.30
1956;DHT22;978;48.314;11.562;2023-08-01T11:03:39;23.90;83.30
1956;DHT22;978;48.314;11.562;2023-08-01T11:06:08;23.90;83.30
1956;DHT22;978;48.314;11.562;2023-08-01T11:08:36;24.00;83.50
1956;DHT22;978;48.314;11.562;2023-08-01T11:11:05;26.00;84.90
1956;DHT22;978;48.314;11.562;2023-08-01T11:13:33;23.90;83.90
1956;DHT22;978;48.314;11.562;2023-08-01T11:16:03;23.90;84.00
1956;DHT22;978;48.314;11.562;2023-08-01T11:18:40;23.90;84.00
1956;DHT22;978;48.314;11.562;2023-08-01T11:21:08;24.00;83.90
1956;DHT22;978;48.314;11.562;2023-08-01T11:23:35;24.00;84.40
1956;DHT22;978;48.314;11.562;2023-08-01T11:26:07;23.90;84.00
1956;DHT22;978;48.314;11.562;2023-08-01T11:28:38;22.60;83.30
1956;DHT22;978;48.314;11.562;2023-08-01T11:31:11;24.00;84.20
1956;DHT22;978;48.314;11.562;2023-08-01T11:33:55;24.00;83.90
1956;DHT22;978;48.314;11.562;2023-08-01T11:36:23;24.00;83.80
1956;DHT22;978;48.314;11.562;2023-08-01T11:38:51;24.00;83.90
1956;DHT22;978;48.314;11.562;2023-08-01T11:41:18;24.80;84.40
1956;DHT22;978;48.314;11.562;2023-08-01T11:43:45;24.00;83.90
1956;DHT22;978;48.314;11.562;2023-08-01T11:46:12;24.00;83.80
1956;DHT22;978;48.314;11.562;2023-08-01T11:48:39;24.10;83.90
1956;DHT22;978;48.314;11.562;2023-08-01T11:51:12;24.00;83.90
1956;DHT22;978;48.314;11.562;2023-08-01T11:53:39;24.00;83.90
1956;DHT22;978;48.314;11.562;2023-08-01T11:56:06;24.00;84.10
1956;DHT22;978;48.314;11.562;2023-08-01T11:58:35;24.00;84.20
1956;DHT22;978;48.314;11.562;2023-08-01T12:01:06;24.00;84.10
1956;DHT22;978;48.314;11.562;2023-08-01T12:03:42;23.90;84.30
1956;DHT22;978;48.314;11.562;2023-08-01T12:06:09;23.90;84.00
1956;DHT22;978;48.314;11.562;2023-08-01T12:08:38;24.40;84.70
1956;DHT22;978;48.314;11.562;2023-08-01T12:11:18;23.80;84.10
1956;DHT22;978;48.314;11.562;2023-08-01T12:13:46;24.00;83.90
1956;DHT22;978;48.314;11.562;2023-08-01T12:16:13;24.00;84.10
1956;DHT22;978;48.314;11.562;2023-08-01T12:18:45;24.00;84.30
1956;DHT22;978;48.314;11.562;2023-08-01T12:21:14;24.00;83.90
1956;DHT22;978;48.314;11.562;2023-08-01T12:23:42;23.90;83.90
1956;DHT22;978;48.314;11.562;2023-08-01T12:26:10;24.00;83.70
1956;DHT22;978;48.314;11.562;2023-08-01T12:28:38;22.30;83.00
1956;DHT22;978;48.314;11.562;2023-08-01T12:31:05;23.90;83.70
1956;DHT22;978;48.314;11.562;2023-08-01T12:33:33;24.00;83.70
1956;DHT22;978;48.314;11.562;2023-08-01T12:36:01;24.00;83.80
1956;DHT22;978;48.314;11.562;2023-08-01T12:38:29;23.90;83.60
1956;DHT22;978;48.314;11.562;2023-08-01T12:40:57;24.00;84.00
1956;DHT22;978;48.314;11.562;2023-08-01T12:43:24;23.90;83.80
1956;DHT22;978;48.314;11.562;2023-08-01T12:45:51;25.80;85.10
1956;DHT22;978;48.314;11.562;2023-08-01T12:48:19;24.00;83.80
1956;DHT22;978;48.314;11.562;2023-08-01T12:50:46;24.00;83.60
1956;DHT22;978;48.314;11.562;2023-08-01T12:53:14;24.20;83.80
1956;DHT22;978;48.314;11.562;2023-08-01T12:55:43;24.00;83.80
1956;DHT22;978;48.314;11.562;2023-08-01T12:58:14;23.90;83.60
1956;DHT22;978;48.314;11.562;2023-08-01T13:00:43;23.90;83.50
1956;DHT22;978;48.314;11.562;2023-08-01T13:03:10;24.00;83.50
1956;DHT22;978;48.314;11.562;2023-08-01T13:05:41;24.00;83.50
1956;DHT22;978;48.314;11.562;2023-08-01T13:08:09;24.00;83.80
1956;DHT22;978;48.314;11.562;2023-08-01T13:10:37;23.90;83.70
1956;DHT22;978;48.314;11.562;2023-08-01T13:13:05;24.00;83.40
1956;DHT22;978;48.314;11.562;2023-08-01T13:15:34;24.00;83.30
1956;DHT22;978;48.314;11.562;2023-08-01T13:18:01;24.10;83.70
1956;DHT22;978;48.314;11.562;2023-08-01T13:20:31;23.00;83.00
1956;DHT22;978;48.314;11.562;2023-08-01T13:22:58;24.40;83.50
1956;DHT22;978;48.314;11.562;2023-08-01T13:25:25;24.00;83.50
1956;DHT22;978;48.314;11.562;2023-08-01T13:27:52;23.90;83.50
1956;DHT22;978;48.314;11.562;2023-08-01T13:30:19;23.90;83.60
1956;DHT22;978;48.314;11.562;2023-08-01T13:32:48;24.00;83.30
1956;DHT22;978;48.314;11.562;2023-08-01T13:35:15;24.00;83.30
1956;DHT22;978;48.314;11.562;2023-08-01T13:37:42;23.90;83.50
1956;DHT22;978;48.314;11.562;2023-08-01T13:40:10;24.00;83.50
1956;DHT22;978;48.314;11.562;2023-08-01T13:42:40;24.00;83.70
1956;DHT22;978;48.314;11.562;2023-08-01T13:45:10;24.00;83.30
1956;DHT22;978;48.314;11.562;2023-08-01T13:47:37;24.00;83.60
1956;DHT22;978;48.314;11.562;2023-08-01T13:50:06;24.00;83.40
1956;DHT22;978;48.314;11.562;2023-08-01T13:52:36;24.00;83.40
1956;DHT22;978;48.314;11.562;2023-08-01T13:55:05;24.00;83.40
1956;DHT22;978;48.314;11.562;2023-08-01T13:57:32;24.00;83.40
1956;DHT22;978;48.314;11.562;2023-08-01T13:59:59;24.20;83.60
1956;DHT22;978;48.314;11.562;2023-08-01T14:02:26;24.10;83.50
1956;DHT22;978;48.314;11.562;2023-08-01T14:04:54;24.00;83.50
1956;DHT22;978;48.314;11.562;2023-08-01T14:07:23;24.10;83.60
1956;DHT22;978;48.314;11.562;2023-08-01T14:09:51;24.10;83.60
1956;DHT22;978;48.314;11.562;2023-08-01T14:12:18;24.00;83.50
1956;DHT22;978;48.314;11.562;2023-08-01T14:14:45;24.00;83.60
1956;DHT22;978;48.314;11.562;2023-08-01T14:17:12;24.00;83.50
1956;DHT22;978;48.314;11.562;2023-08-01T14:19:39;24.10;83.60
1956;DHT22;978;48.314;11.562;2023-08-01T14:22:05;24.00;83.60
1956;DHT22;978;48.314;11.562;2023-08-01T14:24:34;24.10;83.70
1956;DHT22;978;48.314;11.562;2023-08-01T14:27:02;24.00;83.60
1956;DHT22;978;48.314;11.562;2023-08-01T14:29:29;24.00;83.60
1956;DHT22;978;48.314;11.562;2023-08-01T14:31:56;24.00;83.60
1956;DHT22;978;48.314;11.562;2023-08-01T14:34:23;24.00;83.60
1956;DHT22;978;48.314;11.562;2023-08-01T14:36:49;24.00;83.60
1956;DHT22;978;48.314;11.562;2023-08-01T14:39:16;24.00;83.60
1956;DHT22;978;48.314;11.562;2023-08-01T14:41:44;24.10;83.70
1956;DHT22;978;48.314;11.562;2023-08-01T14:44:11;24.40;83.80
1956;DHT22;978;48.314;11.562;2023-08-01T14:46:38;24.00;83.60
1956;DHT22;978;48.314;11.562;2023-08-01T14:49:05;24.00;83.60
1956;DHT22;978;48.314;11.562;2023-08-01T14:51:32;24.00;83.60
1956;DHT22;978;48.314;11.562;2023-08-01T14:53:59;24.00;83.60
1956;DHT22;978;48.314;11.562;2023-08-01T14:56:26;24.00;83.70
1956;DHT22;978;48.314;11.562;2023-08-01T14:58:54;24.00;83.70
1956;DHT22;978;48.314;11.562;2023-08-01T15:01:21;24.10;83.80
1956;DHT22;978;48.314;11.562;2023-08-01T15:03:47;24.10;83.80
1956;DHT22;978;48.314;11.562;2023-08-01T15:06:14;24.10;83.80
1956;DHT22;978;48.314;11.562;2023-08-01T15:08:41;24.00;83.80
1956;DHT22;978;48.314;11.562;2023-08-01T15:11:08;24.00;83.80
1956;DHT22;978;48.314;11.562;2023-08-01T15:13:35;24.00;83.80
1956;DHT22;978;48.314;11.562;2023-08-01T15:16:08;24.00;83.80
1956;DHT22;978;48.314;11.562;2023-08-01T15:18:35;24.00;83.80
1956;DHT22;978;48.314;11.562;2023-08-01T15:21:01;24.00;83.90
1956;DHT22;978;48.314;11.562;2023-08-01T15:23:28;24.10;83.90
1956;DHT22;978;48.314;11.562;2023-08-01T15:25:56;24.00;83.90
1956;DHT22;978;48.314;11.562;2023-08-01T15:28:24;24.40;84.10
1956;DHT22;978;48.314;11.562;2023-08-01T15:31:01;24.00;83.90
1956;DHT22;978;48.314;11.562;2023-08-01T15:33:31;24.00;83.90
1956;DHT22;978;48.314;11.562;2023-08-01T15:36:00;24.10;84.00
1956;DHT22;978;48.314;11.562;2023-08-01T15:38:33;24.00;83.90
1956;DHT22;978;48.314;11.562;2023-08-01T15:41:02;24.00;83.90
1956;DHT22;978;48.314;11.562;2023-08-01T15:43:34;24.10;84.00
1956;DHT22;978;48.314;11.562;2023-08-01T15:46:01;24.00;84.00
1956;DHT22;978;48.314;11.562;2023-08-01T15:48:29;24.00;84.00
1956;DHT22;978;48.314;11.562;2023-08-01T15:50:56;24.10;84.10
1956;DHT22;978;48.314;11.562;2023-08-01T15:53:22;24.10;84.10
1956;DHT22;978;48.314;11.562;2023-08-01T15:55:54;24.10;84.10
1956;DHT22;978;48.314;11.562;2023-08-01T15:58:21;24.60;84.40
1956;DHT22;978;48.314;11.562;2023-08-01T16:00:48;24.00;84.10
1956;DHT22;978;48.314;11.562;2023-08-01T16:03:15;24.10;84.10
1956;DHT22;978;48.314;11.562;2023-08-01T16:05:43;24.00;84.10